Elizabethtown, North Carolina
Current Conditions -  °F | °C
As of 12:35 AM on Sunday 26 Oct 2014 (Local Time) from KEYF Reporting Station
Clear Clear  
Wind Chill: 56°   Ceiling: Unl
Heat Index: 56°   Visibility: 10mi
Dew Point: 44°   Wind: 5mph
Humidity: 63%   Direction: 240°WSW
Pressure: 29.89"   Gusts: NA
Location:  34.63°N, 78.61°W
Report Text: KEYF 260435Z AUTO 24004KT 10SM CLR 14/07 A2989 RMK AO2 T01350065
Loading
Personal Weather Stations






























Interactive Weather Map
Tropical Storm Tracking
New forecast layout! Learn more

10-Day Weather Forecast

Advertisements
Track Severe Weather on mobile